Aviation Digital Data Service (ADDS)

Output produced by METARs form (2345 UTC 15 February 2019)
found at http://www.aviationweather.gov/metar/data/
 
Forecast for: ORER (ERBIL INTL , IQ)
Text: TAF ORER 152300Z 1600/1624 30006KT 6000 FEW020 SCT035 OVC080
Forecast period: 0000 to 0700 UTC 16 February 2019
Forecast type: FROM: standard forecast or significant change
Winds: from the WNW (300 degrees) at 7 MPH (6 knots; 3.1 m/s)
Visibility: 4 miles (6 km)
Ceiling: 8000 feet AGL
Clouds: few clouds at 2000 feet AGL
scattered clouds at 3500 feet AGL
overcast cloud deck at 8000 feet AGL
Weather: no significant weather forecast for this period
Text: TEMPO 1600/1605 3000 BR -SHRA
Forecast period: 0000 to 0500 UTC 16 February 2019
Forecast type: TEMPORARY: The following changes expected for less than half the time period
Visibility: 1.86 miles (2.99 km)
Ceiling: unknown
Clouds: missing
Weather: BR -SHRA  (mist, light rain showers)
Text: BECMG 1607/1609 7000 SCT040 BKN070
Forecast period: 0700 UTC 16 February 2019 to 0000 UTC 17 February 2019
Forecast type: BECOMING: Conditions expected to become as follows by 0900 UTC 16 February 2019
Winds: from the WNW (300 degrees) at 7 MPH (6 knots; 3.1 m/s)
Visibility: 4 miles (7 km)
Ceiling: 7000 feet AGL
Clouds: scattered clouds at 4000 feet AGL
broken clouds at 7000 feet AGL
Weather: no significant weather forecast for this period